createdAt,value
2019-03-27T00:00:26.675Z,9.60
2019-03-27T00:02:56.011Z,12.57
2019-03-27T00:05:25.353Z,12.27
2019-03-27T00:07:54.686Z,10.57
2019-03-27T00:10:24.021Z,13.87
2019-03-27T00:12:53.357Z,15.87
2019-03-27T00:15:23.118Z,9.37
2019-03-27T00:17:52.454Z,15.47
2019-03-27T00:20:21.798Z,11.63
2019-03-27T00:22:51.137Z,14.10
2019-03-27T00:25:20.474Z,11.50
2019-03-27T00:27:49.810Z,12.93
2019-03-27T00:30:19.425Z,10.80
2019-03-27T00:32:48.761Z,9.87
2019-03-27T00:35:18.176Z,14.23
2019-03-27T00:37:47.516Z,9.37
2019-03-27T00:40:17.104Z,13.57
2019-03-27T00:42:46.449Z,17.40
2019-03-27T00:45:25.971Z,9.97
2019-03-27T00:47:47.056Z,10.07
2019-03-27T00:50:16.574Z,16.63
2019-03-27T00:52:46.185Z,11.77
2019-03-27T00:55:16.533Z,12.90
2019-03-27T00:57:46.126Z,7.53
2019-03-27T01:00:34.224Z,10.00
2019-03-27T01:03:03.561Z,10.07
2019-03-27T01:05:32.901Z,11.10
2019-03-27T01:08:02.235Z,8.63
2019-03-27T01:10:31.575Z,9.77
2019-03-27T01:13:00.932Z,13.13
2019-03-27T01:15:39.799Z,10.07
2019-03-27T01:18:01.325Z,11.40
2019-03-27T01:20:30.664Z,10.27
2019-03-27T01:23:00.005Z,9.60
2019-03-27T01:25:29.362Z,10.70
2019-03-27T01:27:58.695Z,8.60
2019-03-27T01:30:28.048Z,11.43
2019-03-27T01:32:57.379Z,9.67
2019-03-27T01:35:26.722Z,13.73
2019-03-27T01:37:56.054Z,5.70
2019-03-27T01:40:25.391Z,10.53
2019-03-27T01:42:54.725Z,8.97
2019-03-27T01:45:24.065Z,9.53
2019-03-27T01:47:53.396Z,9.57
2019-03-27T01:50:22.738Z,12.73
2019-03-27T01:52:52.070Z,7.93
2019-03-27T01:55:21.421Z,6.30
2019-03-27T01:57:50.749Z,8.10
2019-03-27T02:00:20.271Z,9.57
2019-03-27T02:02:49.605Z,11.07
2019-03-27T02:05:18.936Z,7.77
2019-03-27T02:07:48.276Z,11.87
2019-03-27T02:10:17.849Z,10.57
2019-03-27T02:12:47.179Z,9.33
2019-03-27T02:15:18.035Z,9.67
2019-03-27T02:17:47.368Z,10.60
2019-03-27T02:20:16.699Z,8.23
2019-03-27T02:22:46.040Z,9.70
2019-03-27T02:25:15.374Z,10.13
2019-03-27T02:27:44.713Z,13.77
2019-03-27T02:30:14.486Z,9.43
2019-03-27T02:32:43.825Z,7.80
2019-03-27T02:35:13.182Z,6.17
2019-03-27T02:37:42.497Z,10.77
2019-03-27T02:40:12.369Z,11.77
2019-03-27T02:42:41.741Z,9.10
2019-03-27T02:45:11.393Z,8.10
2019-03-27T02:47:40.716Z,11.97
2019-03-27T02:50:10.114Z,8.93
2019-03-27T02:52:39.444Z,8.97
2019-03-27T02:55:09.190Z,10.90
2019-03-27T02:57:38.527Z,13.90
2019-03-27T03:00:12.012Z,11.13
2019-03-27T03:02:41.350Z,10.10
2019-03-27T03:05:11.606Z,7.50
2019-03-27T03:07:40.922Z,9.07
2019-03-27T03:10:12.036Z,8.87
2019-03-27T03:12:41.377Z,6.13
2019-03-27T03:15:12.350Z,8.20
2019-03-27T03:17:41.693Z,8.97
2019-03-27T03:20:14.159Z,8.70
2019-03-27T03:22:43.509Z,13.77
2019-03-27T03:25:13.174Z,9.10
2019-03-27T03:27:42.517Z,8.40
2019-03-27T03:30:13.921Z,8.50
2019-03-27T03:32:43.247Z,6.97
2019-03-27T03:35:13.283Z,6.73
2019-03-27T03:37:42.682Z,10.43
2019-03-27T03:40:15.710Z,9.67
2019-03-27T03:42:45.131Z,11.23
2019-03-27T03:45:14.994Z,7.00
2019-03-27T03:47:44.325Z,10.77
2019-03-27T03:50:39.888Z,10.33
2019-03-27T03:53:11.664Z,6.90
2019-03-27T03:55:42.448Z,6.20
2019-03-27T03:58:14.387Z,8.00
2019-03-27T04:00:44.067Z,11.03
2019-03-27T04:03:13.494Z,5.07
2019-03-27T04:05:42.811Z,7.53
2019-03-27T04:08:12.214Z,6.47
2019-03-27T04:10:41.560Z,6.33
2019-03-27T04:13:10.900Z,9.20
2019-03-27T04:15:40.231Z,7.73
2019-03-27T04:18:09.572Z,10.90
2019-03-27T04:20:38.910Z,9.77
2019-03-27T04:23:08.273Z,12.60
2019-03-27T04:26:06.997Z,8.47
2019-03-27T04:28:08.967Z,11.60
2019-03-27T04:30:38.322Z,12.60
2019-03-27T04:33:07.679Z,11.70
2019-03-27T04:35:37.016Z,11.93
2019-03-27T04:38:06.345Z,6.57
2019-03-27T04:40:35.679Z,8.57
2019-03-27T04:43:05.025Z,8.10
2019-03-27T04:45:34.371Z,8.13
2019-03-27T04:48:03.780Z,6.60
2019-03-27T04:50:33.111Z,13.07
2019-03-27T04:53:02.451Z,15.60
2019-03-27T04:55:31.787Z,8.73
2019-03-27T04:58:01.117Z,9.47
2019-03-27T05:00:30.449Z,11.27
2019-03-27T05:02:59.798Z,10.57
2019-03-27T05:05:29.131Z,8.60
2019-03-27T05:07:58.465Z,9.63
2019-03-27T05:10:27.798Z,13.60
2019-03-27T05:12:57.137Z,11.90
2019-03-27T05:15:26.823Z,9.57
2019-03-27T05:17:56.153Z,9.77
2019-03-27T05:20:28.597Z,11.10
2019-03-27T05:22:56.553Z,9.70
2019-03-27T05:25:25.894Z,14.10
2019-03-27T05:27:55.247Z,11.00
2019-03-27T05:30:31.603Z,13.07
2019-03-27T05:33:01.004Z,9.93
2019-03-27T05:35:30.347Z,10.67
2019-03-27T05:37:59.687Z,10.00
2019-03-27T05:40:29.021Z,11.27
2019-03-27T05:43:01.088Z,11.90
2019-03-27T05:45:29.541Z,12.30
2019-03-27T05:48:00.108Z,12.63
2019-03-27T05:50:29.478Z,16.20
2019-03-27T05:52:58.813Z,13.53
2019-03-27T05:55:28.326Z,13.23
2019-03-27T05:57:57.830Z,11.63
2019-03-27T06:00:27.165Z,12.80
2019-03-27T06:02:56.508Z,12.70
2019-03-27T06:05:25.848Z,8.87
2019-03-27T06:07:55.262Z,12.77
2019-03-27T06:10:24.636Z,15.80
2019-03-27T06:12:53.994Z,12.30
2019-03-27T06:15:24.215Z,13.77
2019-03-27T06:17:53.552Z,15.63
2019-03-27T06:20:22.981Z,11.70
2019-03-27T06:22:52.318Z,19.00
2019-03-27T06:25:21.664Z,13.90
2019-03-27T06:27:53.316Z,16.27
2019-03-27T06:30:22.652Z,17.03
2019-03-27T06:32:52.002Z,18.90
2019-03-27T06:35:21.410Z,15.60
2019-03-27T06:37:50.775Z,12.70
2019-03-27T06:40:20.114Z,12.57
2019-03-27T06:42:49.444Z,17.80
2019-03-27T06:45:18.788Z,12.97
2019-03-27T06:47:48.123Z,12.87
2019-03-27T06:50:17.946Z,11.47
2019-03-27T06:52:47.286Z,16.03
2019-03-27T06:55:16.642Z,12.20
2019-03-27T06:57:45.977Z,13.40
2019-03-27T07:00:15.926Z,15.33
2019-03-27T07:02:45.271Z,18.13
2019-03-27T07:05:14.753Z,11.20
2019-03-27T07:07:47.261Z,16.57
2019-03-27T07:10:16.759Z,16.40
2019-03-27T07:12:46.101Z,14.83
2019-03-27T07:15:15.441Z,12.80
2019-03-27T07:17:44.781Z,15.33
2019-03-27T07:20:14.629Z,18.53
2019-03-27T07:22:43.970Z,14.57
2019-03-27T07:25:13.552Z,16.53
2019-03-27T07:27:42.956Z,10.60
2019-03-27T07:30:12.727Z,21.30
2019-03-27T07:32:42.067Z,13.50
2019-03-27T07:35:11.587Z,15.93
2019-03-27T07:37:41.779Z,10.17
2019-03-27T07:40:11.438Z,13.70
2019-03-27T07:42:40.774Z,14.87
2019-03-27T07:45:10.744Z,17.10
2019-03-27T07:47:40.085Z,12.97
2019-03-27T07:50:11.484Z,10.73
2019-03-27T07:52:40.741Z,12.37
2019-03-27T07:55:19.378Z,11.53
2019-03-27T07:57:44.348Z,11.67
2019-03-27T08:00:18.625Z,14.23
2019-03-27T08:02:47.968Z,8.17
2019-03-27T08:05:17.317Z,11.53
2019-03-27T08:07:46.668Z,10.40
2019-03-27T08:10:15.993Z,10.87
2019-03-27T08:12:45.343Z,10.23
2019-03-27T08:15:15.021Z,7.40
2019-03-27T08:17:44.353Z,12.07
2019-03-27T08:20:14.595Z,7.30
2019-03-27T08:22:43.945Z,10.80
2019-03-27T08:25:13.812Z,3.77
2019-03-27T08:27:43.146Z,5.23
2019-03-27T08:30:14.700Z,8.30
2019-03-27T08:32:44.037Z,6.27
2019-03-27T08:35:13.437Z,4.17
2019-03-27T08:37:42.781Z,12.77
2019-03-27T08:40:13.922Z,9.23
2019-03-27T08:42:43.271Z,6.07
2019-03-27T08:45:13.553Z,7.53
2019-03-27T08:47:42.937Z,6.10
2019-03-27T08:50:13.035Z,7.53
2019-03-27T08:52:42.380Z,9.20
2019-03-27T08:55:13.890Z,7.60
2019-03-27T08:57:43.328Z,7.67
2019-03-27T09:00:15.345Z,8.67
2019-03-27T09:02:44.695Z,10.67
2019-03-27T09:05:14.377Z,10.90
2019-03-27T09:07:43.717Z,5.83
2019-03-27T09:10:13.966Z,5.67
2019-03-27T09:12:43.309Z,7.10
2019-03-27T09:15:12.784Z,7.00
2019-03-27T09:17:42.128Z,8.63
2019-03-27T09:20:12.073Z,8.27
2019-03-27T09:22:41.416Z,4.37
2019-03-27T09:25:11.771Z,5.23
2019-03-27T09:27:41.101Z,4.87
2019-03-27T09:30:13.364Z,4.87
2019-03-27T09:32:42.867Z,5.90
2019-03-27T09:35:12.606Z,6.77
2019-03-27T09:37:42.098Z,5.83
2019-03-27T09:40:12.639Z,9.23
2019-03-27T09:42:41.991Z,12.47
2019-03-27T09:45:12.372Z,6.43
2019-03-27T09:47:42.785Z,6.83
2019-03-27T09:50:13.898Z,7.13
2019-03-27T09:52:43.251Z,7.00
2019-03-27T09:55:12.930Z,15.93
2019-03-27T09:57:42.266Z,7.10
2019-03-27T10:00:12.114Z,7.60
2019-03-27T10:02:41.450Z,9.80
2019-03-27T10:05:11.194Z,6.00
2019-03-27T10:07:40.528Z,6.87
2019-03-27T10:10:10.680Z,11.43
2019-03-27T10:12:40.031Z,6.80
2019-03-27T10:15:09.745Z,5.70
2019-03-27T10:17:39.086Z,6.93
2019-03-27T10:20:08.768Z,8.47
2019-03-27T10:22:38.109Z,6.53
2019-03-27T10:25:09.056Z,8.87
2019-03-27T10:27:38.385Z,9.17
2019-03-27T10:30:09.037Z,8.33
2019-03-27T10:32:38.384Z,9.87
2019-03-27T10:35:08.635Z,8.40
2019-03-27T10:37:37.964Z,6.93
2019-03-27T10:40:08.807Z,7.27
2019-03-27T10:42:38.145Z,8.93
2019-03-27T10:45:08.203Z,10.10
2019-03-27T10:47:37.544Z,6.43
2019-03-27T10:52:39.458Z,8.60
2019-03-27T10:55:09.805Z,8.27
2019-03-27T10:57:39.150Z,6.33
2019-03-27T11:00:11.082Z,5.20
2019-03-27T11:02:40.433Z,8.90
2019-03-27T11:05:10.579Z,5.83
2019-03-27T11:07:39.924Z,8.20
2019-03-27T11:10:10.070Z,7.73
2019-03-27T11:12:39.412Z,11.77
2019-03-27T11:15:09.379Z,13.47
2019-03-27T11:17:38.718Z,6.13
2019-03-27T11:20:10.735Z,6.13
2019-03-27T11:22:40.005Z,10.77
2019-03-27T11:25:10.383Z,8.00
2019-03-27T11:27:39.718Z,7.43
2019-03-27T11:30:10.200Z,9.97
2019-03-27T11:32:39.529Z,9.20
2019-03-27T11:35:09.510Z,7.73
2019-03-27T11:37:38.851Z,10.37
2019-03-27T11:40:08.695Z,8.17
2019-03-27T11:42:38.039Z,12.77
2019-03-27T11:45:09.284Z,9.17
2019-03-27T11:47:38.634Z,10.20
2019-03-27T11:50:11.801Z,13.50
2019-03-27T11:52:41.149Z,9.77
2019-03-27T11:55:11.011Z,10.00
2019-03-27T11:57:40.363Z,7.60
2019-03-27T12:00:12.825Z,9.43
2019-03-27T12:02:43.423Z,9.70
2019-03-27T12:05:13.263Z,10.77
2019-03-27T12:07:42.609Z,9.87
2019-03-27T12:10:12.869Z,10.00
2019-03-27T12:12:42.269Z,8.10
2019-03-27T12:15:12.503Z,8.50
2019-03-27T12:17:42.205Z,10.10
2019-03-27T12:20:12.064Z,7.30
2019-03-27T12:22:41.477Z,9.33
2019-03-27T12:25:11.626Z,8.00
2019-03-27T12:27:40.979Z,7.53
2019-03-27T12:30:10.724Z,6.83
2019-03-27T12:32:40.092Z,8.50
2019-03-27T12:35:09.773Z,8.80
2019-03-27T12:37:39.118Z,9.07
2019-03-27T12:40:11.839Z,8.23
2019-03-27T12:42:39.866Z,10.47
2019-03-27T12:45:09.550Z,9.73
2019-03-27T12:47:38.891Z,9.33
2019-03-27T12:50:09.268Z,10.17
2019-03-27T12:52:38.690Z,9.90
2019-03-27T12:55:08.455Z,9.27
2019-03-27T12:57:37.867Z,8.90
2019-03-27T13:00:12.123Z,8.07
2019-03-27T13:02:41.441Z,13.03
2019-03-27T13:05:11.021Z,10.83
2019-03-27T13:07:49.979Z,11.10
2019-03-27T13:10:11.571Z,9.10
2019-03-27T13:12:40.910Z,9.30
2019-03-27T13:15:10.659Z,12.53
2019-03-27T13:17:39.930Z,8.83
2019-03-27T13:20:10.078Z,7.80
2019-03-27T13:22:39.419Z,7.30
2019-03-27T13:25:09.964Z,9.03
2019-03-27T13:27:40.040Z,10.27
2019-03-27T13:30:10.985Z,9.80
2019-03-27T13:32:40.335Z,11.90
2019-03-27T13:35:10.282Z,12.27
2019-03-27T13:37:39.622Z,9.40
2019-03-27T13:40:12.831Z,10.33
2019-03-27T13:42:42.186Z,9.03
2019-03-27T13:45:12.329Z,9.87
2019-03-27T13:47:41.696Z,8.83
2019-03-27T13:50:14.839Z,11.70
2019-03-27T13:52:44.175Z,9.67
2019-03-27T13:55:13.952Z,8.60
2019-03-27T13:57:43.293Z,11.73
2019-03-27T14:00:15.510Z,10.07
2019-03-27T14:02:44.853Z,7.73
2019-03-27T14:05:15.809Z,10.77
2019-03-27T14:07:45.222Z,7.23
2019-03-27T14:10:16.683Z,9.03
2019-03-27T14:12:46.097Z,9.63
2019-03-27T14:15:16.532Z,8.90
2019-03-27T14:17:45.877Z,8.93
2019-03-27T14:20:15.955Z,10.27
2019-03-27T14:22:45.369Z,6.47
2019-03-27T14:25:15.613Z,9.83
2019-03-27T14:27:45.669Z,7.50
2019-03-27T14:30:19.246Z,8.67
2019-03-27T14:32:48.687Z,9.87
2019-03-27T14:35:18.036Z,9.37
2019-03-27T14:37:48.157Z,12.43
2019-03-27T14:40:17.573Z,7.17
2019-03-27T14:42:46.909Z,5.60
2019-03-27T14:45:16.317Z,8.10
2019-03-27T14:47:45.659Z,7.67
2019-03-27T14:50:16.496Z,7.10
2019-03-27T14:52:45.846Z,7.90
2019-03-27T14:55:15.341Z,7.53
2019-03-27T14:57:44.679Z,7.50
2019-03-27T15:00:14.529Z,8.83
2019-03-27T15:02:43.870Z,4.90
2019-03-27T15:05:14.026Z,8.00
2019-03-27T15:07:43.401Z,8.20
2019-03-27T15:10:13.585Z,4.67
2019-03-27T15:12:42.952Z,6.50
2019-03-27T15:15:13.602Z,5.13
2019-03-27T15:17:43.042Z,5.13
2019-03-27T15:20:12.903Z,6.40
2019-03-27T15:22:42.247Z,6.53
2019-03-27T15:25:12.203Z,8.53
2019-03-27T15:27:41.537Z,7.77
2019-03-27T15:30:14.001Z,6.43
2019-03-27T15:32:43.510Z,4.33
2019-03-27T15:35:12.987Z,4.93
2019-03-27T15:37:42.339Z,7.53
2019-03-27T15:40:12.805Z,8.47
2019-03-27T15:42:42.227Z,6.80
2019-03-27T15:45:11.864Z,5.20
2019-03-27T15:47:41.201Z,4.87
2019-03-27T15:50:10.853Z,4.83
2019-03-27T15:52:40.203Z,4.67
2019-03-27T15:55:10.263Z,6.00
2019-03-27T15:57:39.679Z,5.83
2019-03-27T16:00:09.532Z,9.20
2019-03-27T16:02:38.876Z,8.93
2019-03-27T16:05:08.865Z,5.77
2019-03-27T16:07:38.197Z,7.83
2019-03-27T16:10:08.055Z,8.33
2019-03-27T16:12:37.394Z,5.13
2019-03-27T16:15:11.034Z,7.27
2019-03-27T16:17:40.397Z,5.83
2019-03-27T16:20:10.346Z,2.83
2019-03-27T16:22:49.862Z,5.13
2019-03-27T16:25:11.209Z,6.17
2019-03-27T16:27:40.547Z,6.37
2019-03-27T16:30:11.289Z,4.33
2019-03-27T16:32:40.635Z,3.60
2019-03-27T16:35:10.679Z,5.93
2019-03-27T16:37:40.020Z,3.73
2019-03-27T16:40:11.557Z,6.17
2019-03-27T16:42:40.897Z,3.23
2019-03-27T16:45:10.841Z,3.93
2019-03-27T16:47:40.253Z,5.53
2019-03-27T16:50:10.500Z,3.63
2019-03-27T16:52:39.860Z,3.77
2019-03-27T16:55:09.782Z,8.83
2019-03-27T16:57:39.125Z,5.03
2019-03-27T17:00:09.276Z,4.50
2019-03-27T17:02:38.627Z,5.07
2019-03-27T17:05:09.286Z,5.03
2019-03-27T17:07:38.635Z,6.73
2019-03-27T17:10:08.906Z,5.37
2019-03-27T17:12:38.245Z,6.13
2019-03-27T17:15:09.444Z,7.00
2019-03-27T17:17:38.786Z,7.10
2019-03-27T17:20:12.137Z,4.77
2019-03-27T17:22:41.481Z,6.77
2019-03-27T17:25:11.229Z,5.50
2019-03-27T17:27:40.638Z,8.80
2019-03-27T17:30:12.384Z,5.93
2019-03-27T17:32:41.720Z,9.60
2019-03-27T17:35:11.131Z,6.37
2019-03-27T17:37:40.474Z,6.37
2019-03-27T17:40:10.678Z,6.33
2019-03-27T17:42:39.974Z,5.77
2019-03-27T17:45:09.430Z,6.10
2019-03-27T17:47:38.798Z,7.83
2019-03-27T17:50:08.937Z,4.87
2019-03-27T17:52:38.659Z,6.83
2019-03-27T17:55:08.902Z,8.40
2019-03-27T17:57:38.246Z,6.67
2019-03-27T18:00:10.467Z,8.80
2019-03-27T18:02:39.873Z,6.87
2019-03-27T18:05:09.720Z,6.80
2019-03-27T18:07:39.064Z,9.93
2019-03-27T18:10:08.657Z,7.30
2019-03-27T18:12:38.055Z,9.73
2019-03-27T18:15:09.103Z,8.90
2019-03-27T18:17:38.437Z,8.67
2019-03-27T18:20:07.997Z,13.07
2019-03-27T18:22:37.335Z,9.33
2019-03-27T18:25:07.943Z,7.47
2019-03-27T18:27:37.578Z,8.03
2019-03-27T18:30:08.624Z,8.90
2019-03-27T18:32:37.965Z,13.20
2019-03-27T18:35:07.863Z,11.53
2019-03-27T18:37:37.206Z,9.80
2019-03-27T18:40:08.262Z,17.17
2019-03-27T18:42:37.678Z,8.03
2019-03-27T18:45:09.732Z,11.13
2019-03-27T18:47:39.076Z,11.53
2019-03-27T18:50:09.135Z,8.97
2019-03-27T18:52:38.477Z,7.27
2019-03-27T18:55:08.159Z,14.80
2019-03-27T18:57:37.502Z,9.73
2019-03-27T19:00:09.122Z,7.20
2019-03-27T19:02:38.469Z,7.83
2019-03-27T19:05:08.832Z,8.67
2019-03-27T19:07:38.165Z,10.00
2019-03-27T19:10:08.015Z,8.77
2019-03-27T19:12:37.364Z,7.00
2019-03-27T19:15:10.424Z,5.70
2019-03-27T19:17:40.093Z,6.53
2019-03-27T19:20:10.992Z,7.07
2019-03-27T19:22:40.250Z,6.90
2019-03-27T19:25:09.952Z,9.63
2019-03-27T19:27:39.273Z,8.73
2019-03-27T19:30:11.937Z,6.23
2019-03-27T19:32:40.986Z,7.57
2019-03-27T19:35:10.755Z,11.40
2019-03-27T19:37:40.098Z,10.33
2019-03-27T19:40:09.750Z,10.27
2019-03-27T19:42:39.097Z,10.13
2019-03-27T19:45:08.501Z,7.43
2019-03-27T19:47:37.840Z,7.07
2019-03-27T19:50:08.113Z,7.43
2019-03-27T19:52:37.461Z,8.97
2019-03-27T19:55:07.510Z,11.77
2019-03-27T19:57:36.854Z,7.73
2019-03-27T20:00:11.268Z,8.97
2019-03-27T20:02:40.753Z,9.43
2019-03-27T20:05:10.600Z,8.10
2019-03-27T20:07:39.949Z,8.13
2019-03-27T20:10:10.415Z,8.97
2019-03-27T20:12:39.848Z,9.97
2019-03-27T20:15:12.910Z,10.00
2019-03-27T20:17:41.786Z,10.87
2019-03-27T20:20:11.935Z,9.03
2019-03-27T20:22:41.300Z,10.23
2019-03-27T20:25:11.350Z,8.80
2019-03-27T20:27:42.369Z,12.47
2019-03-27T20:30:20.333Z,11.77
2019-03-27T20:32:49.615Z,9.33
2019-03-27T20:35:19.218Z,12.30
2019-03-27T20:37:48.568Z,14.10
2019-03-27T20:40:19.552Z,11.80
2019-03-27T20:42:52.048Z,12.70
2019-03-27T20:45:20.011Z,12.93
2019-03-27T20:47:49.353Z,16.40
2019-03-27T20:50:19.110Z,12.60
2019-03-27T20:52:48.451Z,14.40
2019-03-27T20:55:29.710Z,12.23
2019-03-27T20:57:49.190Z,15.63
2019-03-27T21:00:18.670Z,13.37
2019-03-27T21:05:27.740Z,14.47
2019-03-27T21:07:57.043Z,15.83
2019-03-27T21:10:26.386Z,15.10
2019-03-27T21:12:55.724Z,13.03
2019-03-27T21:15:25.106Z,11.20
2019-03-27T21:17:54.423Z,16.20
2019-03-27T21:20:23.762Z,11.53
2019-03-27T21:22:53.122Z,12.43
2019-03-27T21:25:22.462Z,12.83
2019-03-27T21:27:51.790Z,9.33
2019-03-27T21:30:21.154Z,13.90
2019-03-27T21:32:50.539Z,13.37
2019-03-27T21:35:19.932Z,15.13
2019-03-27T21:37:49.326Z,10.67
2019-03-27T21:40:18.712Z,17.33
2019-03-27T21:42:48.098Z,13.50
2019-03-27T21:45:17.561Z,17.53
2019-03-27T21:47:46.947Z,17.73
2019-03-27T21:50:16.358Z,18.20
2019-03-27T21:52:59.521Z,16.83
2019-03-27T21:55:22.931Z,17.63
2019-03-27T21:57:48.029Z,21.10
2019-03-27T22:00:24.515Z,20.43
2019-03-27T22:02:53.910Z,16.80
2019-03-27T22:05:24.116Z,15.70
2019-03-27T22:07:53.585Z,19.80
2019-03-27T22:10:22.981Z,21.90
2019-03-27T22:12:52.373Z,19.17
2019-03-27T22:15:21.772Z,18.90
2019-03-27T22:17:51.166Z,20.93
2019-03-27T22:20:20.565Z,20.53
2019-03-27T22:22:49.965Z,19.37
2019-03-27T22:25:19.374Z,19.37
2019-03-27T22:27:48.768Z,22.17
2019-03-27T22:30:18.165Z,19.33
2019-03-27T22:32:48.354Z,18.40
2019-03-27T22:35:17.750Z,19.67
2019-03-27T22:37:47.146Z,23.23
2019-03-27T22:40:16.555Z,20.73
2019-03-27T22:42:45.943Z,21.87
2019-03-27T22:45:15.577Z,20.87
2019-03-27T22:47:44.958Z,23.00
2019-03-27T22:50:14.452Z,22.27
2019-03-27T22:52:43.822Z,23.23
2019-03-27T22:55:13.220Z,23.37
2019-03-27T22:57:42.635Z,24.83
2019-03-27T23:00:14.045Z,25.07
2019-03-27T23:02:43.431Z,23.03
2019-03-27T23:05:12.986Z,23.93
2019-03-27T23:07:42.370Z,26.43
2019-03-27T23:10:14.826Z,22.87
2019-03-27T23:12:44.206Z,24.97
2019-03-27T23:15:14.139Z,25.60
2019-03-27T23:17:43.543Z,24.93
2019-03-27T23:20:13.570Z,26.43
2019-03-27T23:22:42.958Z,21.33
2019-03-27T23:25:12.590Z,25.50
2019-03-27T23:27:41.980Z,26.70
2019-03-27T23:30:13.177Z,26.13
2019-03-27T23:32:42.562Z,24.83
2019-03-27T23:35:12.593Z,21.63
2019-03-27T23:37:41.978Z,25.77
2019-03-27T23:40:11.751Z,25.73
2019-03-27T23:42:41.099Z,27.50
2019-03-27T23:45:11.213Z,27.67
2019-03-27T23:47:40.602Z,28.67
2019-03-27T23:50:10.694Z,27.40
2019-03-27T23:52:40.087Z,26.47
2019-03-27T23:55:09.879Z,25.07
2019-03-27T23:57:39.270Z,30.20
